Time;durP1;ratioP1;P1;durP2;ratioP2;P2;SDS_P1;SDS_P2;PMS_P1;PMS_P2;Temp;Humidity;BMP_temperature;BMP_pressure;BME280_temperature;BME280_humidity;BME280_pressure;Samples;Min_cycle;Max_cycle;Signal;HPM_P1;HPM_P2
2021/11/16 00:01:37;;;;;;;72.47;32.13;;;;;;;;;;5018256;28;20604;-71
2021/11/16 00:04:03;;;;;;;71.87;31.93;;;;;;;;;;5007593;28;20385;-71
2021/11/16 00:06:29;;;;;;;70.80;32.73;;;;;;;;;;5023394;28;20186;-72
2021/11/16 00:08:54;;;;;;;75.20;32.07;;;;;;;;;;5016141;28;20253;-71
2021/11/16 00:11:19;;;;;;;68.87;30.47;;;;;;;;;;5025482;28;20197;-71
2021/11/16 00:13:45;;;;;;;71.00;31.27;;;;;;;;;;5018317;28;20243;-71
2021/11/16 00:16:11;;;;;;;71.90;31.50;;;;;;;;;;5025983;28;20217;-71
2021/11/16 00:18:37;;;;;;;72.03;30.33;;;;;;;;;;5019367;28;20657;-71
2021/11/16 00:21:04;;;;;;;68.53;32.00;;;;;;;;;;5021762;28;20182;-71
2021/11/16 00:23:34;;;;;;;76.70;31.50;;;;;;;;;;5022045;28;20201;-71
2021/11/16 00:26:01;;;;;;;69.17;30.10;;;;;;;;;;5026975;28;20612;-71
2021/11/16 00:28:26;;;;;;;72.47;31.60;;;;;;;;;;5020589;28;20190;-71
2021/11/16 00:30:53;;;;;;;72.57;31.70;;;;;;;;;;5017983;28;20642;-71
2021/11/16 00:33:21;;;;;;;71.30;30.60;;;;;;;;;;5026800;28;20529;-71
2021/11/16 00:35:47;;;;;;;77.60;32.10;;;;;;;;;;5016279;28;20604;-70
2021/11/16 00:38:14;;;;;;;75.57;31.80;;;;;;;;;;5020056;28;20534;-70
2021/11/16 00:40:42;;;;;;;73.47;31.87;;;;;;;;;;5020390;28;20182;-71
2021/11/16 00:43:08;;;;;;;72.03;31.37;;;;;;;;;;5025330;28;20194;-71
2021/11/16 00:45:36;;;;;;;74.70;32.00;;;;;;;;;;5015451;28;20193;-71
2021/11/16 00:48:03;;;;;;;74.70;32.17;;;;;;;;;;5023682;28;20191;-72
2021/11/16 00:50:28;;;;;;;73.83;32.87;;;;;;;;;;5018634;28;20228;-71
2021/11/16 00:52:54;;;;;;;77.50;32.93;;;;;;;;;;5023435;28;20706;-72
2021/11/16 00:55:19;;;;;;;73.90;31.83;;;;;;;;;;5015505;28;20208;-72
2021/11/16 00:57:45;;;;;;;81.57;33.47;;;;;;;;;;5024770;28;20260;-72
2021/11/16 01:00:13;;;;;;;75.93;33.03;;;;;;;;;;5017019;28;20202;-73
2021/11/16 01:02:39;;;;;;;76.00;32.33;;;;;;;;;;5015628;28;20240;-72
2021/11/16 01:05:05;;;;;;;69.77;31.47;;;;;;;;;;5019689;28;20717;-72
2021/11/16 01:07:31;;;;;;;75.10;34.07;;;;;;;;;;5015382;28;20201;-72
2021/11/16 01:09:57;;;;;;;74.13;32.47;;;;;;;;;;5024090;28;20198;-72
2021/11/16 01:12:25;;;;;;;72.63;33.27;;;;;;;;;;5016361;28;20197;-72
2021/11/16 01:14:50;;;;;;;73.10;31.97;;;;;;;;;;5023715;28;20228;-72
2021/11/16 01:17:15;;;;;;;77.60;32.77;;;;;;;;;;5015089;28;20633;-72
2021/11/16 01:19:42;;;;;;;73.60;32.43;;;;;;;;;;5024449;28;20193;-72
2021/11/16 01:22:07;;;;;;;75.97;33.87;;;;;;;;;;5014219;28;20187;-72
2021/11/16 01:24:33;;;;;;;77.97;32.80;;;;;;;;;;5026959;28;20210;-72
2021/11/16 01:26:58;;;;;;;72.97;32.97;;;;;;;;;;5015240;28;20273;-72
2021/11/16 01:29:25;;;;;;;72.43;32.17;;;;;;;;;;5019609;28;20210;-72
2021/11/16 01:31:55;;;;;;;78.50;33.80;;;;;;;;;;5023113;28;20248;-72
2021/11/16 01:34:27;;;;;;;74.23;32.10;;;;;;;;;;5013994;28;20618;-72
2021/11/16 01:36:53;;;;;;;74.00;32.83;;;;;;;;;;5028311;28;20182;-72
2021/11/16 01:39:18;;;;;;;77.70;32.60;;;;;;;;;;5015511;28;20189;-73
2021/11/16 01:41:44;;;;;;;75.13;33.63;;;;;;;;;;5022792;28;20182;-72
2021/11/16 01:44:09;;;;;;;75.80;34.03;;;;;;;;;;5015873;28;20260;-72
2021/11/16 01:46:35;;;;;;;79.73;33.93;;;;;;;;;;5020189;28;20700;-72
2021/11/16 01:49:01;;;;;;;79.43;34.03;;;;;;;;;;5014615;28;20194;-72
2021/11/16 01:51:29;;;;;;;75.93;33.90;;;;;;;;;;5017278;28;20269;-72
2021/11/16 01:54:03;;;;;;;76.60;33.97;;;;;;;;;;5013146;28;20256;-70
2021/11/16 01:56:34;;;;;;;78.97;33.60;;;;;;;;;;5022780;28;20570;-71
2021/11/16 01:58:59;;;;;;;75.80;33.57;;;;;;;;;;5014669;28;20185;-71
2021/11/16 02:01:29;;;;;;;68.70;31.43;;;;;;;;;;5006141;28;20186;-71
2021/11/16 02:03:56;;;;;;;79.63;31.87;;;;;;;;;;5016118;28;20252;-71
2021/11/16 02:06:31;;;;;;;78.00;31.77;;;;;;;;;;5023021;28;20529;-71
2021/11/16 02:08:58;;;;;;;71.40;32.43;;;;;;;;;;5022750;28;20264;-71
2021/11/16 02:11:25;;;;;;;73.80;32.00;;;;;;;;;;5018977;28;20186;-71
2021/11/16 02:13:51;;;;;;;74.93;32.93;;;;;;;;;;5025875;28;20217;-71
2021/11/16 02:16:17;;;;;;;76.07;32.80;;;;;;;;;;5015144;28;20240;-71
2021/11/16 02:18:44;;;;;;;76.37;32.33;;;;;;;;;;5018388;28;20179;-71
2021/11/16 02:21:10;;;;;;;76.70;33.17;;;;;;;;;;5013317;28;20182;-71
2021/11/16 02:23:38;;;;;;;76.40;32.47;;;;;;;;;;5023731;28;20211;-71
2021/11/16 02:26:04;;;;;;;73.40;31.07;;;;;;;;;;5014673;28;20347;-71
2021/11/16 02:28:29;;;;;;;68.93;29.80;;;;;;;;;;5025001;28;20669;-71
2021/11/16 02:30:55;;;;;;;72.03;32.27;;;;;;;;;;5015949;28;20201;-71
2021/11/16 02:33:21;;;;;;;75.50;31.93;;;;;;;;;;5015567;28;20190;-71
2021/11/16 02:35:46;;;;;;;69.93;30.03;;;;;;;;;;5012120;28;20657;-71
2021/11/16 02:38:12;;;;;;;78.60;33.43;;;;;;;;;;5019130;28;20179;-71
2021/11/16 02:40:38;;;;;;;75.23;31.40;;;;;;;;;;5018157;28;20579;-71
2021/11/16 02:43:04;;;;;;;73.43;32.20;;;;;;;;;;5016752;28;20189;-71
2021/11/16 02:45:30;;;;;;;79.63;32.67;;;;;;;;;;5024492;28;20329;-71
2021/11/16 02:47:55;;;;;;;85.70;33.33;;;;;;;;;;5017718;28;20626;-71
2021/11/16 02:50:21;;;;;;;78.57;32.37;;;;;;;;;;5023335;28;20302;-71
2021/11/16 02:52:48;;;;;;;81.13;32.77;;;;;;;;;;5009397;28;20187;-71
2021/11/16 02:55:15;;;;;;;77.30;32.73;;;;;;;;;;5024553;28;20221;-71
2021/11/16 02:57:41;;;;;;;79.43;32.07;;;;;;;;;;5011599;28;20182;-71
2021/11/16 03:00:10;;;;;;;75.27;31.53;;;;;;;;;;5023508;28;20190;-71
2021/11/16 03:02:36;;;;;;;79.10;33.20;;;;;;;;;;5011474;28;20261;-71
2021/11/16 03:05:01;;;;;;;80.17;33.23;;;;;;;;;;5028446;28;20364;-71
2021/11/16 03:07:34;;;;;;;75.17;32.43;;;;;;;;;;5009939;28;20283;-71
2021/11/16 03:10:01;;;;;;;73.40;31.97;;;;;;;;;;5024610;28;20244;-71
2021/11/16 03:12:28;;;;;;;82.60;32.87;;;;;;;;;;5021141;28;20247;-71
2021/11/16 03:14:54;;;;;;;75.70;31.40;;;;;;;;;;5026024;28;20190;-71
2021/11/16 03:17:19;;;;;;;70.40;31.57;;;;;;;;;;5027478;28;20189;-71
2021/11/16 03:19:45;;;;;;;79.27;33.73;;;;;;;;;;5019372;28;20273;-71
2021/11/16 03:22:10;;;;;;;79.47;33.50;;;;;;;;;;5024278;28;20186;-71
2021/11/16 03:24:36;;;;;;;80.37;32.00;;;;;;;;;;5019108;28;20271;-71
2021/11/16 03:27:08;;;;;;;80.33;32.37;;;;;;;;;;5028248;28;20197;-71
2021/11/16 03:29:37;;;;;;;83.60;33.63;;;;;;;;;;5018557;28;20228;-71
2021/11/16 03:32:08;;;;;;;82.10;33.80;;;;;;;;;;5026425;28;20190;-71
2021/11/16 03:34:34;;;;;;;79.13;33.23;;;;;;;;;;5019846;28;20186;-71
2021/11/16 03:37:00;;;;;;;77.13;32.47;;;;;;;;;;5028884;28;20182;-71
2021/11/16 03:39:26;;;;;;;78.30;32.87;;;;;;;;;;5017484;28;20179;-71
2021/11/16 03:41:52;;;;;;;77.03;31.83;;;;;;;;;;5022350;28;20197;-71
2021/11/16 03:44:18;;;;;;;74.73;31.23;;;;;;;;;;5017571;28;20186;-71
2021/11/16 03:46:44;;;;;;;74.77;31.57;;;;;;;;;;5025675;28;20185;-71
2021/11/16 03:49:12;;;;;;;81.80;33.00;;;;;;;;;;5015509;28;20185;-71
2021/11/16 03:51:40;;;;;;;73.07;31.00;;;;;;;;;;5023784;28;20186;-71
2021/11/16 03:54:06;;;;;;;77.37;32.50;;;;;;;;;;5017809;28;20380;-71
2021/11/16 03:56:32;;;;;;;83.53;33.97;;;;;;;;;;5011382;28;20202;-71
2021/11/16 03:58:57;;;;;;;79.53;33.27;;;;;;;;;;5023940;28;20197;-71
2021/11/16 04:01:23;;;;;;;76.57;31.97;;;;;;;;;;5015517;28;20650;-71
2021/11/16 04:03:49;;;;;;;79.00;33.10;;;;;;;;;;5016145;28;20702;-71
2021/11/16 04:06:16;;;;;;;84.17;33.83;;;;;;;;;;5013721;28;20197;-71
2021/11/16 04:08:41;;;;;;;76.37;31.80;;;;;;;;;;5025796;28;20186;-71
2021/11/16 04:11:07;;;;;;;75.10;31.17;;;;;;;;;;5017010;28;20319;-71
2021/11/16 04:13:33;;;;;;;78.43;31.63;;;;;;;;;;5023591;28;20206;-70
2021/11/16 04:16:01;;;;;;;81.37;30.40;;;;;;;;;;5015962;28;20187;-71
2021/11/16 04:18:26;;;;;;;78.50;32.10;;;;;;;;;;5026210;28;20194;-71
2021/11/16 04:20:55;;;;;;;76.00;30.73;;;;;;;;;;5014150;28;20910;-72
2021/11/16 04:23:22;;;;;;;71.90;31.27;;;;;;;;;;5024284;28;20213;-71
2021/11/16 04:25:47;;;;;;;79.13;32.07;;;;;;;;;;5018728;28;20811;-71
2021/11/16 04:28:15;;;;;;;71.97;30.37;;;;;;;;;;5016053;28;20201;-71
2021/11/16 04:30:42;;;;;;;77.47;31.30;;;;;;;;;;5023908;28;20658;-71
2021/11/16 04:33:08;;;;;;;72.13;30.47;;;;;;;;;;5017977;28;20271;-71
2021/11/16 04:35:33;;;;;;;80.20;31.33;;;;;;;;;;5027586;28;20190;-71
2021/11/16 04:38:01;;;;;;;79.63;32.63;;;;;;;;;;5014327;28;20183;-71
2021/11/16 04:40:36;;;;;;;80.33;31.57;;;;;;;;;;5026922;28;20193;-71
2021/11/16 04:43:06;;;;;;;80.30;30.27;;;;;;;;;;5014614;28;20193;-71
2021/11/16 04:45:33;;;;;;;79.00;31.30;;;;;;;;;;5024391;28;20220;-71
2021/11/16 04:48:03;;;;;;;84.17;32.60;;;;;;;;;;5014169;28;20542;-71
2021/11/16 04:53:23;;;;;;;74.17;31.10;;;;;;;;;;5016512;28;20194;-71
2021/11/16 05:04:06;;;;;;;81.27;33.03;;;;;;;;;;5017481;28;20383;-71
2021/11/16 05:06:31;;;;;;;84.10;33.43;;;;;;;;;;5022867;28;20269;-71
2021/11/16 05:08:57;;;;;;;78.53;32.40;;;;;;;;;;5015650;28;20190;-71
2021/11/16 05:11:24;;;;;;;85.13;33.20;;;;;;;;;;5018791;28;21069;-71
2021/11/16 05:13:50;;;;;;;79.63;32.80;;;;;;;;;;5017907;28;20186;-71
2021/11/16 05:16:18;;;;;;;82.53;33.20;;;;;;;;;;5024178;28;20556;-71
2021/11/16 05:18:44;;;;;;;76.60;32.03;;;;;;;;;;5022049;28;20178;-71
2021/11/16 05:21:11;;;;;;;84.10;32.33;;;;;;;;;;5021100;28;20198;-71
2021/11/16 05:23:43;;;;;;;83.83;32.03;;;;;;;;;;5028923;28;20178;-71
2021/11/16 05:26:10;;;;;;;84.17;32.63;;;;;;;;;;5011298;28;20189;-71
2021/11/16 05:28:36;;;;;;;76.90;30.87;;;;;;;;;;5014882;28;20268;-71
2021/11/16 05:31:02;;;;;;;81.77;30.87;;;;;;;;;;5012909;28;20201;-71
2021/11/16 05:33:28;;;;;;;87.67;33.00;;;;;;;;;;5020560;28;20198;-71
2021/11/16 05:36:00;;;;;;;79.00;31.47;;;;;;;;;;5011267;28;20186;-71
2021/11/16 05:38:28;;;;;;;77.83;30.73;;;;;;;;;;5011322;28;20209;-71
2021/11/16 05:40:54;;;;;;;80.90;32.07;;;;;;;;;;5015212;28;20186;-71
2021/11/16 05:43:21;;;;;;;86.03;32.37;;;;;;;;;;5015414;28;20194;-71
2021/11/16 05:45:47;;;;;;;85.43;32.50;;;;;;;;;;5017833;28;20232;-71
2021/11/16 05:48:13;;;;;;;87.37;32.80;;;;;;;;;;5013035;28;20237;-71
2021/11/16 05:50:39;;;;;;;80.83;32.70;;;;;;;;;;5013780;28;20293;-71
2021/11/16 05:53:06;;;;;;;88.13;33.53;;;;;;;;;;5021081;28;20194;-71
2021/11/16 05:55:32;;;;;;;83.63;32.63;;;;;;;;;;5012795;28;20337;-70
2021/11/16 05:57:57;;;;;;;87.00;33.63;;;;;;;;;;5014550;28;20273;-71
2021/11/16 06:00:23;;;;;;;93.87;34.03;;;;;;;;;;4323098;28;10000760;-71
2021/11/16 06:02:49;;;;;;;92.07;32.67;;;;;;;;;;5006394;28;20199;-71
2021/11/16 06:05:15;;;;;;;86.50;32.03;;;;;;;;;;5021336;28;20348;-71
2021/11/16 06:07:41;;;;;;;79.73;29.70;;;;;;;;;;5010221;28;20289;-71
2021/11/16 06:10:07;;;;;;;77.13;29.53;;;;;;;;;;5020780;28;20212;-71
2021/11/16 06:12:33;;;;;;;82.40;30.63;;;;;;;;;;5003307;28;20186;-72
2021/11/16 06:14:58;;;;;;;74.37;28.43;;;;;;;;;;5015913;28;20202;-71
2021/11/16 06:17:24;;;;;;;73.13;29.67;;;;;;;;;;5006081;28;20255;-71
2021/11/16 06:19:50;;;;;;;81.57;29.97;;;;;;;;;;5018832;28;20231;-71
2021/11/16 06:22:15;;;;;;;83.77;32.43;;;;;;;;;;5010282;28;20574;-71
2021/11/16 06:24:41;;;;;;;89.30;33.07;;;;;;;;;;5008994;28;20191;-71
2021/11/16 06:27:07;;;;;;;94.63;33.00;;;;;;;;;;5014297;28;20201;-71
2021/11/16 06:29:32;;;;;;;92.63;33.33;;;;;;;;;;5015628;28;20234;-71
2021/11/16 06:31:58;;;;;;;101.97;35.90;;;;;;;;;;5018820;28;20229;-71
2021/11/16 06:34:24;;;;;;;96.80;36.70;;;;;;;;;;5014375;28;20221;-72
2021/11/16 06:36:50;;;;;;;99.87;35.33;;;;;;;;;;4671816;28;10000131;-72
2021/11/16 06:39:18;;;;;;;90.10;35.07;;;;;;;;;;5015467;28;20273;-71
2021/11/16 06:41:44;;;;;;;98.07;34.77;;;;;;;;;;5022467;28;20202;-72
2021/11/16 06:44:11;;;;;;;103.60;35.37;;;;;;;;;;5011114;28;20282;-72
2021/11/16 06:46:37;;;;;;;104.13;36.07;;;;;;;;;;5022170;28;20688;-70
2021/11/16 06:49:06;;;;;;;92.17;33.80;;;;;;;;;;5010511;28;20282;-70
2021/11/16 06:51:37;;;;;;;85.93;32.03;;;;;;;;;;5025610;28;20181;-71
2021/11/16 06:54:04;;;;;;;91.80;34.07;;;;;;;;;;5013876;28;20189;-73
2021/11/16 06:56:29;;;;;;;99.50;34.13;;;;;;;;;;5022618;28;20206;-72
2021/11/16 06:58:55;;;;;;;98.63;35.17;;;;;;;;;;5014548;28;20225;-72
2021/11/16 07:01:21;;;;;;;104.67;36.27;;;;;;;;;;5021506;28;20186;-72
2021/11/16 07:03:51;;;;;;;105.87;34.73;;;;;;;;;;5022796;28;20257;-71
2021/11/16 07:06:17;;;;;;;92.40;33.27;;;;;;;;;;5016722;28;20601;-71
2021/11/16 07:08:45;;;;;;;84.90;31.00;;;;;;;;;;5023381;28;20189;-72
2021/11/16 07:11:19;;;;;;;79.43;31.53;;;;;;;;;;5013520;28;20661;-72
2021/11/16 07:14:05;;;;;;;89.90;31.90;;;;;;;;;;5023296;28;20200;-72
2021/11/16 07:16:37;;;;;;;86.13;30.50;;;;;;;;;;5008381;28;20633;-72
2021/11/16 07:19:08;;;;;;;91.03;31.33;;;;;;;;;;5026220;28;20201;-72
2021/11/16 07:21:53;;;;;;;86.73;31.80;;;;;;;;;;5012966;28;20190;-71
2021/11/16 07:24:28;;;;;;;89.73;31.60;;;;;;;;;;5022453;28;20300;-72
2021/11/16 07:27:02;;;;;;;85.93;31.43;;;;;;;;;;5011097;28;20202;-72
2021/11/16 07:29:49;;;;;;;81.20;30.97;;;;;;;;;;5020298;28;20228;-71
2021/11/16 07:32:25;;;;;;;94.97;32.50;;;;;;;;;;5009985;28;20194;-71
2021/11/16 07:34:51;;;;;;;90.73;30.67;;;;;;;;;;5017054;28;20202;-72
2021/11/16 07:37:24;;;;;;;96.60;33.07;;;;;;;;;;5011125;28;20248;-72
2021/11/16 07:40:01;;;;;;;85.87;31.47;;;;;;;;;;5018682;28;20643;-72
2021/11/16 07:42:29;;;;;;;89.30;30.63;;;;;;;;;;5012125;28;20186;-72
2021/11/16 07:45:10;;;;;;;94.53;32.40;;;;;;;;;;5037754;28;20198;-72
2021/11/16 07:47:55;;;;;;;92.40;32.07;;;;;;;;;;5015937;28;20196;-72
2021/11/16 07:50:52;;;;;;;88.37;32.17;;;;;;;;;;5020575;28;20301;-72
2021/11/16 07:53:30;;;;;;;84.27;30.13;;;;;;;;;;5002889;28;20199;-73
2021/11/16 07:56:03;;;;;;;93.47;31.00;;;;;;;;;;5019363;28;20210;-71
2021/11/16 07:58:42;;;;;;;83.67;30.87;;;;;;;;;;5012033;28;20189;-71
2021/11/16 08:01:14;;;;;;;81.80;29.60;;;;;;;;;;5018966;28;20195;-71
2021/11/16 08:03:43;;;;;;;74.13;29.77;;;;;;;;;;5010975;28;20790;-71
2021/11/16 08:06:20;;;;;;;81.10;29.47;;;;;;;;;;5019195;28;20182;-71
2021/11/16 08:11:18;;;;;;;74.10;27.07;;;;;;;;;;5018973;28;20213;-71
2021/11/16 08:14:05;;;;;;;74.23;27.30;;;;;;;;;;5003239;28;20310;-71
2021/11/16 08:16:31;;;;;;;64.03;25.10;;;;;;;;;;5019788;28;20189;-71
2021/11/16 08:19:08;;;;;;;66.67;25.60;;;;;;;;;;5009803;28;20662;-71
2021/11/16 08:21:36;;;;;;;61.13;25.33;;;;;;;;;;5022782;28;20195;-71
2021/11/16 08:24:06;;;;;;;62.20;24.00;;;;;;;;;;5010315;28;20268;-71
2021/11/16 08:26:37;;;;;;;64.63;25.27;;;;;;;;;;5020083;28;20626;-72
2021/11/16 08:29:04;;;;;;;60.23;24.23;;;;;;;;;;5014120;28;20225;-72
2021/11/16 08:31:37;;;;;;;60.53;24.07;;;;;;;;;;5018284;28;20272;-71
2021/11/16 08:34:03;;;;;;;56.23;24.00;;;;;;;;;;5013295;28;20244;-72
2021/11/16 08:36:40;;;;;;;56.23;23.63;;;;;;;;;;5019817;28;20187;-72
2021/11/16 08:39:06;;;;;;;59.00;23.70;;;;;;;;;;5014283;28;20217;-72
2021/11/16 08:41:32;;;;;;;55.63;23.97;;;;;;;;;;5021461;28;20210;-72
2021/11/16 08:44:31;;;;;;;58.97;24.10;;;;;;;;;;5022929;28;20190;-72
2021/11/16 08:47:08;;;;;;;59.10;24.40;;;;;;;;;;5019093;28;20202;-72
2021/11/16 08:49:34;;;;;;;56.27;23.27;;;;;;;;;;5016530;28;20193;-72
2021/11/16 08:52:03;;;;;;;52.63;23.40;;;;;;;;;;5013253;28;20262;-72
2021/11/16 08:54:35;;;;;;;61.93;23.27;;;;;;;;;;5022093;28;20190;-71
2021/11/16 08:57:15;;;;;;;52.47;22.40;;;;;;;;;;4317605;28;10022872;-72
2021/11/16 08:59:40;;;;;;;56.07;22.50;;;;;;;;;;5009529;28;20634;-72
2021/11/16 09:02:08;;;;;;;52.83;22.57;;;;;;;;;;5009622;28;20255;-72
2021/11/16 09:04:36;;;;;;;57.17;22.73;;;;;;;;;;5013763;28;20655;-71
2021/11/16 09:07:25;;;;;;;47.60;20.13;;;;;;;;;;5005071;28;20179;-72
2021/11/16 09:09:56;;;;;;;55.50;21.83;;;;;;;;;;5011724;28;20225;-72
2021/11/16 09:12:34;;;;;;;51.13;21.83;;;;;;;;;;5006703;28;20197;-72
2021/11/16 09:15:02;;;;;;;48.53;20.73;;;;;;;;;;5016516;28;20279;-72
2021/11/16 09:17:28;;;;;;;46.83;20.53;;;;;;;;;;5005436;28;20296;-72
2021/11/16 09:19:53;;;;;;;43.33;19.63;;;;;;;;;;5018915;28;20280;-72
2021/11/16 09:22:19;;;;;;;52.17;20.63;;;;;;;;;;5007722;28;20325;-72
2021/11/16 09:24:48;;;;;;;50.33;20.10;;;;;;;;;;5013434;28;20273;-72
2021/11/16 09:27:35;;;;;;;47.30;19.90;;;;;;;;;;5007075;28;20335;-72
2021/11/16 09:30:03;;;;;;;42.87;19.70;;;;;;;;;;5016093;28;20233;-72
2021/11/16 09:32:29;;;;;;;45.67;19.13;;;;;;;;;;5008943;28;20617;-71
2021/11/16 09:34:57;;;;;;;46.57;19.27;;;;;;;;;;5019544;28;20268;-72
2021/11/16 09:37:24;;;;;;;42.87;18.80;;;;;;;;;;5004809;28;23576;-71
2021/11/16 09:39:53;;;;;;;45.90;20.00;;;;;;;;;;5013171;28;20312;-71
2021/11/16 09:42:23;;;;;;;45.53;19.40;;;;;;;;;;5016799;28;20257;-71
2021/11/16 09:44:53;;;;;;;45.30;19.60;;;;;;;;;;5015720;28;20289;-73
2021/11/16 09:47:22;;;;;;;44.37;19.33;;;;;;;;;;5020494;28;20277;-72
2021/11/16 09:49:54;;;;;;;43.37;18.70;;;;;;;;;;5009753;28;20628;-72
2021/11/16 09:52:25;;;;;;;40.03;18.17;;;;;;;;;;5016880;28;20193;-71
2021/11/16 09:54:57;;;;;;;37.67;17.97;;;;;;;;;;5004875;28;20202;-71
2021/11/16 09:57:36;;;;;;;41.20;17.33;;;;;;;;;;5012056;28;20756;-71
2021/11/16 10:00:10;;;;;;;73.87;20.97;;;;;;;;;;5012686;28;20701;-71
2021/11/16 10:02:37;;;;;;;43.77;19.13;;;;;;;;;;5019642;28;20268;-71
2021/11/16 10:05:07;;;;;;;41.93;18.57;;;;;;;;;;5011468;28;20230;-71
2021/11/16 10:07:36;;;;;;;36.43;17.33;;;;;;;;;;5021970;28;20182;-71
2021/11/16 10:10:04;;;;;;;43.03;18.10;;;;;;;;;;5013092;28;20210;-71
2021/11/16 10:12:39;;;;;;;38.77;16.97;;;;;;;;;;5021595;28;20562;-71
2021/11/16 10:15:04;;;;;;;45.07;17.87;;;;;;;;;;5010049;28;20236;-71
2021/11/16 10:17:30;;;;;;;46.23;18.07;;;;;;;;;;5021850;28;20190;-71
2021/11/16 10:19:55;;;;;;;43.13;18.87;;;;;;;;;;5011516;28;20208;-71
2021/11/16 10:22:20;;;;;;;41.77;17.77;;;;;;;;;;5022075;28;20247;-72
2021/11/16 10:24:46;;;;;;;39.30;18.27;;;;;;;;;;5010744;28;20255;-72
2021/11/16 10:27:17;;;;;;;43.60;18.97;;;;;;;;;;5019632;28;20260;-71
2021/11/16 10:29:44;;;;;;;47.37;19.83;;;;;;;;;;5012230;28;20205;-72
2021/11/16 10:32:21;;;;;;;42.10;18.73;;;;;;;;;;5025704;28;20210;-72
2021/11/16 10:34:47;;;;;;;49.67;19.50;;;;;;;;;;5014422;28;20646;-72
2021/11/16 10:37:13;;;;;;;41.30;18.53;;;;;;;;;;5011149;28;20198;-72
2021/11/16 10:39:38;;;;;;;43.77;18.90;;;;;;;;;;5016475;28;20664;-72
2021/11/16 10:42:06;;;;;;;46.43;18.63;;;;;;;;;;5018033;28;20261;-72
2021/11/16 10:44:37;;;;;;;43.80;18.20;;;;;;;;;;5019549;28;20268;-72
2021/11/16 10:47:04;;;;;;;43.73;18.10;;;;;;;;;;5010870;28;20600;-72
2021/11/16 10:49:30;;;;;;;40.90;17.00;;;;;;;;;;5019819;28;20246;-73
2021/11/16 10:51:56;;;;;;;39.27;18.27;;;;;;;;;;5012505;28;20853;-73
2021/11/16 10:54:21;;;;;;;42.57;18.63;;;;;;;;;;5019664;28;20230;-73
2021/11/16 10:56:48;;;;;;;38.33;17.07;;;;;;;;;;5010543;28;20217;-72
2021/11/16 10:59:18;;;;;;;32.83;15.73;;;;;;;;;;5015164;28;20191;-73
2021/11/16 11:01:55;;;;;;;38.57;15.97;;;;;;;;;;5013171;28;20194;-72
2021/11/16 11:04:31;;;;;;;38.90;17.47;;;;;;;;;;5016354;28;20221;-72
2021/11/16 11:07:12;;;;;;;37.20;17.07;;;;;;;;;;5005011;28;20670;-73
2021/11/16 11:09:37;;;;;;;35.17;16.10;;;;;;;;;;5017475;28;20214;-73
2021/11/16 11:12:03;;;;;;;35.33;15.27;;;;;;;;;;5012745;28;20186;-72
2021/11/16 11:14:37;;;;;;;36.17;15.47;;;;;;;;;;5017475;28;20721;-72
2021/11/16 11:17:05;;;;;;;37.10;15.27;;;;;;;;;;5017194;28;20252;-72
2021/11/16 11:19:35;;;;;;;37.17;16.60;;;;;;;;;;5013202;28;20282;-72
2021/11/16 11:22:11;;;;;;;33.53;14.10;;;;;;;;;;5022963;28;20182;-72
2021/11/16 11:24:45;;;;;;;41.37;16.10;;;;;;;;;;5015532;28;20198;-72
2021/11/16 11:29:52;;;;;;;32.83;14.97;;;;;;;;;;5013619;28;20222;-72
2021/11/16 11:32:38;;;;;;;32.60;15.17;;;;;;;;;;5021967;28;20545;-72
2021/11/16 11:35:10;;;;;;;34.47;14.70;;;;;;;;;;5017276;28;20218;-73
2021/11/16 11:37:38;;;;;;;31.97;14.03;;;;;;;;;;5022357;28;20194;-72
2021/11/16 11:40:06;;;;;;;33.80;14.90;;;;;;;;;;5013840;28;20221;-73
2021/11/16 11:42:49;;;;;;;36.87;14.70;;;;;;;;;;5022895;28;20650;-72
2021/11/16 11:45:28;;;;;;;34.67;15.07;;;;;;;;;;5014441;28;21090;-72
2021/11/16 11:47:59;;;;;;;36.13;15.20;;;;;;;;;;5021427;28;20191;-72
2021/11/16 11:50:31;;;;;;;32.27;15.23;;;;;;;;;;5013755;28;20210;-73
2021/11/16 11:53:02;;;;;;;35.53;15.90;;;;;;;;;;5011433;28;20266;-72
2021/11/16 11:55:32;;;;;;;38.43;16.53;;;;;;;;;;5011690;28;20527;-73
2021/11/16 11:58:01;;;;;;;38.87;16.37;;;;;;;;;;5015293;28;20190;-72
2021/11/16 12:00:27;;;;;;;35.43;15.53;;;;;;;;;;5013745;28;20222;-72
2021/11/16 12:02:53;;;;;;;33.40;15.10;;;;;;;;;;5017426;28;20566;-72
2021/11/16 12:05:19;;;;;;;35.97;16.30;;;;;;;;;;5013506;28;20319;-72
2021/11/16 12:07:45;;;;;;;32.63;15.00;;;;;;;;;;5028482;28;20662;-73
2021/11/16 12:10:11;;;;;;;37.60;15.93;;;;;;;;;;5014140;28;20210;-73
2021/11/16 12:12:36;;;;;;;38.30;15.73;;;;;;;;;;5017835;28;20232;-72
2021/11/16 12:15:11;;;;;;;39.33;16.20;;;;;;;;;;5015816;28;20579;-72
2021/11/16 12:17:48;;;;;;;33.90;15.00;;;;;;;;;;5019944;28;20196;-72
2021/11/16 12:20:33;;;;;;;37.00;16.13;;;;;;;;;;5010887;28;20186;-72
2021/11/16 12:22:58;;;;;;;37.17;16.07;;;;;;;;;;5019045;28;20186;-72
2021/11/16 12:25:24;;;;;;;42.43;16.53;;;;;;;;;;5016293;28;20186;-72
2021/11/16 12:27:50;;;;;;;32.40;15.73;;;;;;;;;;4321620;28;10000823;-72
2021/11/16 12:30:35;;;;;;;40.97;16.33;;;;;;;;;;5022814;28;20638;-72
2021/11/16 12:33:01;;;;;;;40.43;17.00;;;;;;;;;;5017842;28;20185;-72
2021/11/16 12:35:26;;;;;;;41.17;16.53;;;;;;;;;;5020937;28;20677;-73
2021/11/16 12:37:58;;;;;;;38.20;16.77;;;;;;;;;;5012166;28;20198;-73
2021/11/16 12:40:33;;;;;;;37.93;16.40;;;;;;;;;;5019953;28;20186;-73
2021/11/16 12:43:24;;;;;;;45.17;16.93;;;;;;;;;;5010336;28;20196;-72
2021/11/16 12:45:59;;;;;;;41.10;16.60;;;;;;;;;;5014746;28;20194;-72
2021/11/16 12:48:55;;;;;;;37.60;15.83;;;;;;;;;;5010046;28;20251;-72
2021/11/16 12:51:29;;;;;;;40.17;16.60;;;;;;;;;;5021143;28;20224;-72
2021/11/16 12:53:55;;;;;;;36.03;14.80;;;;;;;;;;5014311;28;20190;-72
2021/11/16 12:56:22;;;;;;;37.30;15.93;;;;;;;;;;5020511;28;20217;-72
2021/11/16 12:58:53;;;;;;;35.87;15.13;;;;;;;;;;5014610;28;20265;-72
2021/11/16 13:01:39;;;;;;;37.30;15.50;;;;;;;;;;5019322;28;20555;-72
2021/11/16 13:04:07;;;;;;;31.40;13.70;;;;;;;;;;5009227;28;20281;-73
2021/11/16 13:06:35;;;;;;;34.73;14.67;;;;;;;;;;5023184;28;20327;-72
2021/11/16 13:09:03;;;;;;;34.07;15.17;;;;;;;;;;5007285;28;20371;-72
2021/11/16 13:11:44;;;;;;;32.20;14.23;;;;;;;;;;5017846;28;20217;-72
2021/11/16 13:14:12;;;;;;;32.90;13.53;;;;;;;;;;5008146;28;20523;-73
2021/11/16 13:16:38;;;;;;;30.90;13.67;;;;;;;;;;5019480;28;20283;-72
2021/11/16 13:19:05;;;;;;;35.57;13.87;;;;;;;;;;5008283;28;20583;-73
2021/11/16 13:21:39;;;;;;;36.87;14.80;;;;;;;;;;5017557;28;20179;-72
2021/11/16 13:24:11;;;;;;;32.67;13.50;;;;;;;;;;5011073;28;20305;-72
2021/11/16 13:26:50;;;;;;;32.77;13.33;;;;;;;;;;5020316;28;20638;-72
2021/11/16 13:29:23;;;;;;;33.13;14.30;;;;;;;;;;5010126;28;20209;-72
2021/11/16 13:31:55;;;;;;;30.60;13.13;;;;;;;;;;5017167;28;20189;-72
2021/11/16 13:34:32;;;;;;;37.00;13.83;;;;;;;;;;5010615;28;20272;-72
2021/11/16 13:37:23;;;;;;;30.43;13.30;;;;;;;;;;5016784;28;20221;-72
2021/11/16 13:39:52;;;;;;;29.50;12.90;;;;;;;;;;5011896;28;20506;-72
2021/11/16 13:42:22;;;;;;;28.80;12.33;;;;;;;;;;5017234;28;20186;-72
2021/11/16 13:45:00;;;;;;;26.93;12.37;;;;;;;;;;5010367;28;20628;-72
2021/11/16 13:47:32;;;;;;;27.83;12.23;;;;;;;;;;5013754;28;20221;-72
2021/11/16 13:50:04;;;;;;;33.10;13.17;;;;;;;;;;5009214;28;20218;-72
2021/11/16 13:52:34;;;;;;;33.17;12.90;;;;;;;;;;5014673;28;20637;-71
2021/11/16 13:55:21;;;;;;;28.20;11.80;;;;;;;;;;5008601;28;20669;-72
2021/11/16 13:57:50;;;;;;;29.27;12.80;;;;;;;;;;5010778;28;20604;-72
2021/11/16 14:00:29;;;;;;;30.53;12.57;;;;;;;;;;5004360;28;20182;-72
2021/11/16 14:03:03;;;;;;;33.40;13.87;;;;;;;;;;5017107;28;20240;-72
2021/11/16 14:05:45;;;;;;;28.83;12.83;;;;;;;;;;5007998;28;20275;-71
2021/11/16 14:08:17;;;;;;;28.47;12.70;;;;;;;;;;5036910;28;20194;-71
2021/11/16 14:10:45;;;;;;;28.47;12.47;;;;;;;;;;5005999;28;20217;-72
2021/11/16 14:13:11;;;;;;;32.03;12.27;;;;;;;;;;5009730;28;20548;-72
2021/11/16 14:15:36;;;;;;;27.63;12.13;;;;;;;;;;5015261;28;20355;-71
2021/11/16 14:18:05;;;;;;;28.73;12.17;;;;;;;;;;5011453;28;20558;-72
2021/11/16 14:20:33;;;;;;;26.43;11.03;;;;;;;;;;5011597;28;20197;-72
2021/11/16 14:23:13;;;;;;;26.20;10.37;;;;;;;;;;5010083;28;20190;-71
2021/11/16 14:25:47;;;;;;;26.73;10.70;;;;;;;;;;5016237;28;20189;-71
2021/11/16 14:28:16;;;;;;;28.00;10.83;;;;;;;;;;5005621;28;20235;-72
2021/11/16 14:30:41;;;;;;;31.90;12.30;;;;;;;;;;5015698;28;20240;-71
2021/11/16 14:33:09;;;;;;;25.33;10.77;;;;;;;;;;5007886;28;20190;-71
2021/11/16 14:35:36;;;;;;;26.93;10.93;;;;;;;;;;5013358;28;20261;-71
2021/11/16 14:38:03;;;;;;;31.33;11.97;;;;;;;;;;5013446;28;20194;-72
2021/11/16 14:40:29;;;;;;;26.23;12.00;;;;;;;;;;5018895;28;20349;-71
2021/11/16 14:42:57;;;;;;;31.37;12.37;;;;;;;;;;5005209;28;20278;-71
2021/11/16 14:45:29;;;;;;;32.27;11.73;;;;;;;;;;5019393;28;20233;-71